Time;durP1;ratioP1;P1;durP2;ratioP2;P2;SDS_P1;SDS_P2;PMS_P1;PMS_P2;Temp;Humidity;BMP_temperature;BMP_pressure;BME280_temperature;BME280_humidity;BME280_pressure;Samples;Min_cycle;Max_cycle;Signal;HPM_P1;HPM_P2
2024/04/13 00:00:28;;;;;;;5.28;2.00;;;16.70;77.30;;;;;;5490560;26;20017;-73
2024/04/13 00:02:55;;;;;;;3.65;2.00;;;16.70;77.40;;;;;;5457982;26;20022;-73
2024/04/13 00:05:21;;;;;;;4.78;2.03;;;16.60;77.50;;;;;;5458713;26;20018;-73
2024/04/13 00:07:47;;;;;;;7.68;2.55;;;16.60;77.70;;;;;;5490444;26;20023;-73
2024/04/13 00:10:13;;;;;;;7.10;2.30;;;16.70;77.50;;;;;;5490562;26;20018;-74
2024/04/13 00:12:39;;;;;;;8.23;2.08;;;16.70;77.70;;;;;;5490145;26;20018;-73
2024/04/13 00:15:06;;;;;;;4.57;1.92;;;16.70;77.50;;;;;;5489229;26;20017;-73
2024/04/13 00:17:32;;;;;;;4.18;2.00;;;16.70;77.60;;;;;;5490262;26;20026;-73
2024/04/13 00:19:58;;;;;;;3.85;2.10;;;16.60;77.60;;;;;;5489324;26;20018;-73
2024/04/13 00:22:24;;;;;;;5.30;2.25;;;16.60;77.80;;;;;;5457451;26;20472;-73
2024/04/13 00:24:50;;;;;;;6.65;2.13;;;16.60;77.80;;;;;;5490075;26;20477;-73
2024/04/13 00:27:16;;;;;;;4.28;2.22;;;16.60;77.90;;;;;;5490045;26;20021;-73
2024/04/13 00:29:43;;;;;;;5.50;2.53;;;16.60;78.00;;;;;;5489404;26;20045;-73
2024/04/13 00:32:09;;;;;;;3.65;2.00;;;16.60;78.10;;;;;;5490062;26;20014;-73
2024/04/13 00:34:35;;;;;;;3.08;1.90;;;16.50;78.40;;;;;;5456906;26;20022;-73
2024/04/13 00:37:04;;;;;;;5.93;2.15;;;16.50;78.60;;;;;;5489857;26;20014;-73
2024/04/13 00:39:31;;;;;;;5.88;2.20;;;16.50;78.80;;;;;;5489649;26;20022;-73
2024/04/13 00:41:58;;;;;;;4.30;2.10;;;16.50;79.10;;;;;;5489444;26;20022;-73
2024/04/13 00:44:25;;;;;;;3.35;2.00;;;16.50;79.00;;;;;;5489698;26;20026;-73
2024/04/13 00:47:04;;;;;;;4.50;2.40;;;16.40;79.20;;;;;;5489828;26;20351;-73
2024/04/13 00:49:32;;;;;;;5.68;2.10;;;16.40;79.20;;;;;;5489826;26;20026;-73
2024/04/13 00:51:58;;;;;;;6.43;2.47;;;16.30;79.30;;;;;;5489445;26;20021;-74
2024/04/13 00:54:28;;;;;;;7.30;2.42;;;16.30;79.50;;;;;;5489625;26;20018;-73
2024/04/13 00:56:54;;;;;;;5.88;2.83;;;16.20;79.50;;;;;;5489580;26;20027;-73
2024/04/13 00:59:25;;;;;;;5.68;2.42;;;16.10;79.50;;;;;;5489518;26;20019;-73
2024/04/13 01:01:56;;;;;;;4.25;2.50;;;16.10;79.70;;;;;;5456730;26;20025;-73
2024/04/13 01:04:22;;;;;;;4.10;2.50;;;16.00;79.90;;;;;;5489485;26;20027;-74
2024/04/13 01:06:49;;;;;;;8.15;2.42;;;16.00;80.10;;;;;;5488260;26;20023;-73
2024/04/13 01:09:16;;;;;;;3.17;2.10;;;15.90;80.20;;;;;;5486887;26;20022;-73
2024/04/13 01:11:43;;;;;;;4.88;2.60;;;15.90;80.30;;;;;;5487898;26;20018;-73
2024/04/13 01:14:13;;;;;;;3.15;2.13;;;15.80;80.60;;;;;;5456612;26;20027;-73
2024/04/13 01:16:39;;;;;;;5.57;2.95;;;15.80;80.90;;;;;;5489187;26;20018;-73
2024/04/13 01:19:07;;;;;;;4.80;2.47;;;15.80;81.40;;;;;;5489240;26;20026;-73
2024/04/13 01:21:33;;;;;;;5.97;2.53;;;15.80;81.50;;;;;;5489070;26;20022;-73
2024/04/13 01:24:05;;;;;;;5.55;2.70;;;15.80;81.50;;;;;;5489054;26;20014;-73
2024/04/13 01:26:38;;;;;;;5.87;2.80;;;15.70;81.60;;;;;;5489172;26;20018;-73
2024/04/13 01:29:05;;;;;;;5.32;2.42;;;15.70;81.90;;;;;;5456422;26;20018;-73
2024/04/13 01:31:34;;;;;;;6.93;2.90;;;15.70;81.60;;;;;;5491129;26;20359;-73
2024/04/13 01:34:02;;;;;;;4.13;2.47;;;15.70;81.70;;;;;;5491602;26;20456;-73
2024/04/13 01:36:36;;;;;;;5.82;3.15;;;15.80;81.80;;;;;;5460354;26;20456;-73
2024/04/13 01:39:12;;;;;;;6.38;2.97;;;15.70;82.20;;;;;;5492765;26;20456;-73
2024/04/13 01:41:46;;;;;;;5.03;2.97;;;15.70;81.90;;;;;;5492905;26;20386;-73
2024/04/13 01:44:12;;;;;;;4.63;2.30;;;15.70;81.90;;;;;;5492537;26;20471;-73
2024/04/13 01:46:39;;;;;;;7.47;2.75;;;15.60;82.20;;;;;;5491204;26;20037;-73
2024/04/13 01:49:05;;;;;;;7.68;2.85;;;15.50;82.80;;;;;;5492632;26;20023;-73
2024/04/13 01:51:32;;;;;;;4.80;2.42;;;15.50;82.90;;;;;;5492543;26;20021;-73
2024/04/13 01:53:58;;;;;;;4.88;2.40;;;15.40;83.00;;;;;;5491512;26;20015;-73
2024/04/13 01:56:24;;;;;;;4.07;2.33;;;15.40;83.20;;;;;;5492564;26;20027;-73
2024/04/13 01:58:50;;;;;;;5.50;2.72;;;15.40;83.00;;;;;;5492200;26;20034;-73
2024/04/13 02:01:17;;;;;;;4.18;2.70;;;15.40;83.50;;;;;;5504739;26;20049;-74
2024/04/13 02:03:43;;;;;;;6.03;2.70;;;15.30;83.90;;;;;;5528245;26;20022;-74
2024/04/13 02:06:09;;;;;;;4.18;2.85;;;15.30;83.90;;;;;;5529139;26;20021;-73
2024/04/13 02:08:37;;;;;;;3.92;2.30;;;15.30;84.20;;;;;;5529323;26;20022;-74
2024/04/13 02:11:06;;;;;;;6.72;2.58;;;15.20;84.20;;;;;;5529073;26;20460;-74
2024/04/13 02:13:33;;;;;;;9.00;2.85;;;15.20;84.10;;;;;;5528985;26;20035;-74
2024/04/13 02:16:03;;;;;;;6.57;2.88;;;15.30;84.00;;;;;;5528964;26;20030;-74
2024/04/13 02:18:29;;;;;;;4.50;2.80;;;15.30;84.40;;;;;;5529194;26;20014;-74
2024/04/13 02:20:55;;;;;;;5.47;3.08;;;15.40;84.00;;;;;;5527945;26;20103;-74
2024/04/13 02:23:22;;;;;;;8.27;3.10;;;15.40;84.10;;;;;;5495844;26;20022;-74
2024/04/13 02:25:52;;;;;;;6.53;3.00;;;15.40;84.00;;;;;;5527653;26;20487;-74
2024/04/13 02:28:18;;;;;;;4.95;3.00;;;15.30;84.30;;;;;;5527452;26;20026;-74
2024/04/13 02:30:44;;;;;;;5.20;3.10;;;15.40;84.60;;;;;;5495649;26;20029;-74
2024/04/13 02:33:10;;;;;;;4.53;2.90;;;15.30;84.20;;;;;;5528824;26;20017;-72
2024/04/13 02:35:37;;;;;;;7.53;3.25;;;15.30;84.30;;;;;;5528815;26;20022;-74
2024/04/13 02:38:04;;;;;;;4.68;2.88;;;15.20;84.80;;;;;;5527889;26;20361;-74
2024/04/13 02:40:30;;;;;;;5.15;3.08;;;15.20;84.80;;;;;;5528918;26;20026;-74
2024/04/13 02:43:01;;;;;;;6.55;3.25;;;15.10;84.80;;;;;;5527955;26;20428;-74
2024/04/13 02:45:27;;;;;;;5.75;3.42;;;15.10;85.40;;;;;;5528570;26;20022;-73
2024/04/13 02:47:53;;;;;;;5.57;3.22;;;15.10;84.60;;;;;;5528660;26;20017;-74
2024/04/13 02:50:19;;;;;;;7.32;3.10;;;15.10;84.70;;;;;;5528610;26;20384;-74
2024/04/13 02:52:47;;;;;;;5.30;3.03;;;15.20;84.70;;;;;;5528318;26;20480;-74
2024/04/13 02:55:14;;;;;;;6.45;3.15;;;15.10;85.00;;;;;;5527033;26;20475;-74
2024/04/13 02:57:40;;;;;;;7.07;3.30;;;15.10;85.00;;;;;;5528335;26;20025;-73
2024/04/13 03:00:07;;;;;;;6.40;3.40;;;15.10;85.00;;;;;;5528346;26;20017;-74
2024/04/13 03:02:34;;;;;;;5.35;3.20;;;15.10;85.10;;;;;;5496166;26;20021;-73
2024/04/13 03:05:03;;;;;;;5.63;3.17;;;15.10;85.00;;;;;;5528359;26;20473;-74
2024/04/13 03:07:29;;;;;;;5.07;3.40;;;15.10;85.20;;;;;;5495880;26;20021;-73
2024/04/13 03:09:55;;;;;;;9.02;3.92;;;15.00;85.70;;;;;;5526985;26;20018;-73
2024/04/13 03:12:21;;;;;;;5.38;3.33;;;14.90;85.70;;;;;;5527662;26;20014;-74
2024/04/13 03:14:47;;;;;;;7.85;4.43;;;14.90;85.90;;;;;;5527124;26;20033;-74
2024/04/13 03:17:14;;;;;;;7.57;4.15;;;14.90;86.10;;;;;;5494930;26;20017;-74
2024/04/13 03:19:40;;;;;;;7.35;3.80;;;14.80;86.10;;;;;;5527332;26;20025;-74
2024/04/13 03:22:06;;;;;;;5.57;3.38;;;14.90;85.90;;;;;;5528104;26;20018;-74
2024/04/13 03:24:35;;;;;;;5.50;3.45;;;14.90;85.80;;;;;;5527917;26;20459;-74
2024/04/13 03:27:02;;;;;;;8.35;3.75;;;14.90;85.80;;;;;;5528140;26;20017;-74
2024/04/13 03:29:29;;;;;;;6.72;3.65;;;14.90;85.90;;;;;;5528092;26;20033;-74
2024/04/13 03:31:55;;;;;;;7.38;3.33;;;14.90;86.20;;;;;;5527814;26;20021;-74
2024/04/13 03:34:21;;;;;;;6.18;3.55;;;14.90;86.30;;;;;;5494773;26;20030;-74
2024/04/13 03:36:47;;;;;;;7.15;3.53;;;14.90;86.20;;;;;;5494293;26;20021;-74
2024/04/13 03:39:14;;;;;;;5.80;3.63;;;14.90;86.00;;;;;;5527842;26;20020;-74
2024/04/13 03:41:40;;;;;;;5.93;3.65;;;14.90;86.00;;;;;;5527151;26;20029;-74
2024/04/13 03:44:07;;;;;;;7.07;4.03;;;14.90;86.20;;;;;;5527625;26;20026;-74
2024/04/13 03:46:34;;;;;;;8.52;3.70;;;14.90;86.60;;;;;;5527895;26;20041;-74
2024/04/13 03:49:00;;;;;;;7.20;3.38;;;14.80;87.00;;;;;;5527749;26;20026;-74
2024/04/13 03:51:26;;;;;;;5.68;3.85;;;14.70;87.30;;;;;;5526580;26;20026;-74
2024/04/13 03:53:52;;;;;;;5.75;3.92;;;14.70;87.00;;;;;;5524910;26;20021;-74
2024/04/13 03:56:18;;;;;;;5.75;3.63;;;14.70;87.10;;;;;;5527507;26;20033;-74
2024/04/13 03:58:45;;;;;;;6.13;3.65;;;14.80;87.00;;;;;;5527500;26;20041;-74
2024/04/13 04:01:11;;;;;;;6.10;3.90;;;14.80;87.40;;;;;;5527632;26;20013;-73
2024/04/13 04:03:38;;;;;;;8.18;4.05;;;14.70;87.70;;;;;;5527513;26;20014;-74
2024/04/13 04:06:05;;;;;;;7.40;3.83;;;14.60;88.30;;;;;;5527355;26;20451;-74
2024/04/13 04:08:31;;;;;;;6.78;3.53;;;14.50;88.80;;;;;;5527203;26;20329;-74
2024/04/13 04:10:58;;;;;;;7.15;4.07;;;14.40;89.20;;;;;;5527224;26;20030;-74
2024/04/13 04:13:24;;;;;;;5.60;3.70;;;14.40;89.30;;;;;;5527395;26;20013;-74
2024/04/13 04:15:52;;;;;;;7.53;3.88;;;14.40;89.20;;;;;;5525813;26;20030;-73
2024/04/13 04:18:18;;;;;;;5.25;3.63;;;14.40;89.50;;;;;;5527241;26;20017;-74
2024/04/13 04:20:48;;;;;;;6.10;3.90;;;14.30;89.50;;;;;;5527084;26;20029;-74
2024/04/13 04:23:14;;;;;;;7.53;4.13;;;14.30;89.90;;;;;;5527153;26;20022;-74
2024/04/13 04:25:40;;;;;;;7.00;4.03;;;14.30;90.00;;;;;;5525834;26;20017;-74
2024/04/13 04:28:07;;;;;;;7.22;3.70;;;14.30;90.10;;;;;;5493560;26;20472;-74
2024/04/13 04:30:33;;;;;;;6.13;3.92;;;14.30;90.10;;;;;;5525613;26;20031;-74
2024/04/13 04:33:00;;;;;;;6.47;4.18;;;14.30;90.10;;;;;;5526934;26;20017;-74
2024/04/13 04:35:26;;;;;;;10.32;4.20;;;14.40;90.30;;;;;;5526796;26;20349;-74
2024/04/13 04:37:52;;;;;;;6.60;4.20;;;14.30;90.20;;;;;;5526835;26;20029;-74
2024/04/13 04:40:20;;;;;;;9.35;4.18;;;14.30;90.50;;;;;;5526709;26;20018;-74
2024/04/13 04:42:46;;;;;;;10.60;4.38;;;14.30;91.00;;;;;;5526675;26;20025;-74
2024/04/13 04:45:13;;;;;;;5.38;3.72;;;14.30;90.70;;;;;;5526799;26;20013;-74
2024/04/13 04:47:39;;;;;;;6.18;3.88;;;14.30;90.80;;;;;;5525046;26;20021;-74
2024/04/13 04:50:05;;;;;;;7.57;4.00;;;14.30;90.70;;;;;;5526611;26;20014;-74
2024/04/13 04:52:32;;;;;;;5.65;4.10;;;14.30;90.70;;;;;;5526562;26;20018;-74
2024/04/13 04:55:01;;;;;;;7.20;4.20;;;14.30;90.60;;;;;;5526620;26;20018;-73
2024/04/13 04:57:28;;;;;;;6.63;4.43;;;14.30;90.70;;;;;;5525062;26;20464;-74
2024/04/13 04:59:55;;;;;;;7.60;4.10;;;14.40;90.60;;;;;;5524981;26;20022;-73
2024/04/13 05:02:21;;;;;;;8.48;4.82;;;14.40;90.70;;;;;;5526365;26;20013;-74
2024/04/13 05:04:47;;;;;;;8.70;4.38;;;14.40;90.70;;;;;;5527512;26;20021;-73
2024/04/13 05:07:13;;;;;;;8.48;4.05;;;14.40;90.90;;;;;;5496690;26;20017;-73
2024/04/13 05:09:40;;;;;;;6.97;4.28;;;14.40;90.90;;;;;;5530234;26;20022;-73
2024/04/13 05:12:06;;;;;;;11.55;4.15;;;14.40;91.00;;;;;;5527577;26;20021;-73
2024/04/13 05:14:32;;;;;;;8.00;4.53;;;14.40;91.10;;;;;;5496860;26;20022;-73
2024/04/13 05:16:58;;;;;;;8.30;4.60;;;14.40;91.30;;;;;;5529747;26;20033;-73
2024/04/13 05:19:24;;;;;;;8.75;4.45;;;14.40;91.20;;;;;;5513946;26;20034;-73
2024/04/13 05:21:51;;;;;;;8.55;4.63;;;14.40;91.40;;;;;;5493008;26;20018;-74
2024/04/13 05:24:17;;;;;;;6.70;3.88;;;14.40;91.60;;;;;;5460592;26;20364;-74
2024/04/13 05:26:44;;;;;;;10.32;4.57;;;14.50;91.60;;;;;;5433383;26;20368;-74
2024/04/13 05:29:11;;;;;;;7.97;4.72;;;14.50;91.50;;;;;;5456069;26;20027;-74
2024/04/13 05:31:37;;;;;;;7.32;4.35;;;14.50;91.70;;;;;;5455991;26;20034;-74
2024/04/13 05:34:03;;;;;;;8.02;4.13;;;14.60;91.80;;;;;;5423143;26;20468;-74
2024/04/13 05:36:29;;;;;;;8.77;4.75;;;14.60;92.00;;;;;;5454105;26;20382;-74
2024/04/13 05:38:55;;;;;;;12.30;5.00;;;14.60;92.10;;;;;;5455743;26;20039;-73
2024/04/13 05:41:22;;;;;;;9.63;4.45;;;14.70;92.00;;;;;;5455786;26;20031;-73
2024/04/13 05:43:48;;;;;;;7.82;4.38;;;14.70;92.00;;;;;;5454620;26;20023;-73
2024/04/13 05:46:14;;;;;;;8.73;4.70;;;14.70;92.00;;;;;;5455746;26;20019;-74
2024/04/13 05:48:40;;;;;;;7.43;4.88;;;14.70;92.10;;;;;;5455069;26;20027;-73
2024/04/13 05:51:07;;;;;;;6.82;4.22;;;14.70;91.90;;;;;;5455794;26;20018;-74
2024/04/13 05:53:33;;;;;;;7.20;4.45;;;14.80;92.20;;;;;;5480825;26;20026;-73
2024/04/13 05:56:07;;;;;;;8.45;4.57;;;14.70;92.30;;;;;;5491983;26;20030;-73
2024/04/13 05:58:33;;;;;;;8.00;4.75;;;14.80;92.30;;;;;;5492064;26;20034;-74
2024/04/13 06:00:59;;;;;;;6.63;4.40;;;14.80;92.20;;;;;;5491961;26;20031;-73
2024/04/13 06:03:25;;;;;;;7.85;4.63;;;14.90;92.00;;;;;;5491315;26;20038;-73
2024/04/13 06:05:52;;;;;;;8.57;4.32;;;15.00;92.20;;;;;;5491905;26;20027;-73
2024/04/13 06:08:18;;;;;;;12.68;5.22;;;15.10;92.10;;;;;;5491629;26;20031;-74
2024/04/13 06:10:44;;;;;;;7.25;4.68;;;15.10;93.00;;;;;;5491860;26;20022;-73
2024/04/13 06:13:10;;;;;;;9.55;4.57;;;15.10;92.40;;;;;;5491740;26;20022;-73
2024/04/13 06:15:37;;;;;;;7.13;4.75;;;15.20;92.60;;;;;;5491418;26;20018;-74
2024/04/13 06:18:04;;;;;;;7.55;4.75;;;15.30;92.90;;;;;;5490492;26;20026;-73
2024/04/13 06:20:30;;;;;;;6.75;4.88;;;15.40;92.60;;;;;;5491636;26;20018;-73
2024/04/13 06:22:57;;;;;;;8.15;4.82;;;15.50;92.70;;;;;;5475292;26;20453;-74
2024/04/13 06:25:23;;;;;;;6.68;4.10;;;15.60;92.70;;;;;;5455211;26;20022;-74
2024/04/13 06:27:49;;;;;;;7.72;4.65;;;15.60;92.60;;;;;;5455080;26;20030;-73
2024/04/13 06:30:15;;;;;;;9.35;4.72;;;15.70;92.50;;;;;;5455215;26;20019;-74
2024/04/13 06:32:41;;;;;;;6.65;4.30;;;15.80;92.60;;;;;;5454412;26;20030;-73
2024/04/13 06:35:09;;;;;;;9.00;4.80;;;15.90;92.20;;;;;;5455009;26;20023;-73
2024/04/13 06:37:35;;;;;;;7.75;5.30;;;16.00;92.20;;;;;;5422601;26;20468;-74
2024/04/13 06:40:04;;;;;;;6.80;4.68;;;16.10;92.30;;;;;;5422421;26;20030;-74
2024/04/13 06:42:30;;;;;;;7.88;4.47;;;16.20;92.30;;;;;;5422560;26;20022;-74
2024/04/13 06:44:56;;;;;;;7.75;4.70;;;16.30;92.00;;;;;;5455048;26;20019;-74
2024/04/13 06:47:22;;;;;;;7.30;4.75;;;16.40;92.30;;;;;;5454040;26;20028;-73
2024/04/13 06:49:48;;;;;;;7.57;4.90;;;16.40;92.20;;;;;;5454640;26;20027;-74
2024/04/13 06:52:14;;;;;;;10.85;4.80;;;16.50;92.10;;;;;;5460378;26;20038;-74
2024/04/13 06:54:41;;;;;;;7.20;4.57;;;16.60;92.50;;;;;;5491043;26;20278;-73
2024/04/13 06:57:07;;;;;;;6.85;4.57;;;16.70;92.30;;;;;;5489701;26;20022;-74
2024/04/13 06:59:34;;;;;;;11.52;4.70;;;16.70;92.10;;;;;;5491139;26;20026;-74
2024/04/13 07:02:00;;;;;;;9.00;4.57;;;16.80;92.10;;;;;;5458120;26;20022;-74
2024/04/13 07:04:26;;;;;;;7.10;5.03;;;16.90;92.30;;;;;;5490156;26;20022;-73
2024/04/13 07:06:52;;;;;;;7.75;4.75;;;16.90;92.40;;;;;;5490697;26;20030;-74
2024/04/13 07:09:20;;;;;;;8.25;4.80;;;17.00;92.30;;;;;;5484422;26;20042;-73
2024/04/13 07:11:46;;;;;;;7.32;4.63;;;17.10;92.10;;;;;;5490841;26;20488;-73
2024/04/13 07:14:13;;;;;;;12.35;5.35;;;17.20;92.10;;;;;;5490913;26;20022;-74
2024/04/13 07:16:40;;;;;;;7.07;4.60;;;17.40;92.30;;;;;;5490882;26;20022;-75
2024/04/13 07:19:06;;;;;;;8.38;5.30;;;17.50;92.10;;;;;;5490510;26;20034;-72
2024/04/13 07:21:32;;;;;;;7.03;4.75;;;17.60;92.30;;;;;;5490688;26;20030;-73
2024/04/13 07:24:00;;;;;;;9.00;4.60;;;17.60;92.30;;;;;;5458854;26;20026;-73
2024/04/13 07:26:26;;;;;;;10.18;5.13;;;17.70;92.10;;;;;;5454358;26;20468;-73
2024/04/13 07:28:52;;;;;;;8.90;4.85;;;17.80;92.60;;;;;;5454273;26;20022;-72
2024/04/13 07:31:19;;;;;;;6.40;4.53;;;17.90;92.30;;;;;;5465212;26;20468;-72
2024/04/13 07:33:45;;;;;;;8.43;4.78;;;18.00;92.00;;;;;;5489894;26;20022;-74
2024/04/13 07:36:11;;;;;;;7.43;4.68;;;18.20;92.00;;;;;;5490304;26;20018;-73
2024/04/13 07:38:37;;;;;;;8.32;4.68;;;18.30;92.10;;;;;;5489195;26;20363;-73
2024/04/13 07:41:03;;;;;;;6.40;4.22;;;18.40;92.00;;;;;;5490481;26;20022;-73
2024/04/13 07:43:30;;;;;;;6.60;4.40;;;18.50;91.80;;;;;;5490249;26;20038;-73
2024/04/13 07:45:57;;;;;;;7.20;4.28;;;18.70;91.70;;;;;;5488966;26;20026;-73
2024/04/13 07:48:23;;;;;;;6.25;3.90;;;18.80;91.50;;;;;;5488736;26;20033;-73
2024/04/13 07:50:49;;;;;;;7.07;3.72;;;18.90;91.30;;;;;;5486620;26;20026;-73
2024/04/13 07:53:16;;;;;;;8.07;3.53;;;19.10;91.30;;;;;;5475040;26;20022;-73
2024/04/13 07:55:42;;;;;;;5.22;3.15;;;19.20;90.70;;;;;;5489173;26;20014;-73
2024/04/13 07:58:08;;;;;;;5.50;2.95;;;19.30;90.60;;;;;;5489844;26;20026;-73
2024/04/13 08:00:34;;;;;;;5.25;3.22;;;19.40;90.40;;;;;;5490245;26;20015;-74
2024/04/13 08:03:01;;;;;;;6.65;3.13;;;19.40;89.60;;;;;;5490088;26;20030;-75
2024/04/13 08:05:27;;;;;;;5.65;2.95;;;19.50;88.10;;;;;;5490603;26;20018;-74
2024/04/13 08:07:53;;;;;;;5.40;3.10;;;19.50;88.30;;;;;;5489448;26;20014;-74
2024/04/13 08:10:21;;;;;;;5.15;3.20;;;19.60;88.90;;;;;;5458514;26;20004;-74
2024/04/13 08:12:48;;;;;;;4.70;3.00;;;19.70;88.50;;;;;;5489346;26;20022;-74
2024/04/13 08:15:15;;;;;;;6.78;3.20;;;19.80;88.00;;;;;;5490472;26;20030;-74
2024/04/13 08:17:41;;;;;;;4.88;2.53;;;19.90;87.90;;;;;;5489969;26;20030;-74
2024/04/13 08:20:10;;;;;;;4.68;2.88;;;20.00;87.90;;;;;;5488046;26;20038;-73
2024/04/13 08:22:37;;;;;;;5.38;2.47;;;20.00;85.70;;;;;;5487667;26;20035;-73
2024/04/13 08:25:03;;;;;;;6.68;2.92;;;20.10;86.70;;;;;;5487659;26;20369;-73
2024/04/13 08:27:31;;;;;;;4.50;2.33;;;20.20;86.50;;;;;;5486845;26;20022;-73
2024/04/13 08:29:57;;;;;;;4.57;2.80;;;20.30;86.40;;;;;;5453662;26;20022;-73
2024/04/13 08:32:24;;;;;;;9.40;2.90;;;20.30;86.00;;;;;;5453496;26;20018;-74
2024/04/13 08:34:53;;;;;;;3.85;2.60;;;20.40;83.50;;;;;;5486084;26;20018;-73
2024/04/13 08:37:20;;;;;;;3.22;2.00;;;20.40;83.30;;;;;;5486246;26;20232;-73
2024/04/13 08:39:46;;;;;;;5.25;2.33;;;20.50;84.60;;;;;;5487821;26;20390;-73
2024/04/13 08:42:18;;;;;;;6.60;2.75;;;20.60;82.90;;;;;;5491712;26;20014;-73
2024/04/13 08:44:51;;;;;;;7.35;2.40;;;20.60;82.70;;;;;;5461009;26;20022;-73
2024/04/13 08:47:18;;;;;;;4.85;2.20;;;20.70;84.20;;;;;;5460867;26;20022;-72
2024/04/13 08:49:47;;;;;;;5.57;2.22;;;20.70;81.80;;;;;;5493174;26;20029;-73
2024/04/13 08:52:14;;;;;;;4.65;2.47;;;20.80;82.80;;;;;;5493120;26;20026;-73
2024/04/13 08:54:41;;;;;;;5.95;2.30;;;20.80;80.60;;;;;;5460527;26;20027;-73
2024/04/13 08:57:10;;;;;;;2.65;1.80;;;20.90;82.60;;;;;;5493160;26;20022;-74
2024/04/13 08:59:37;;;;;;;5.60;2.47;;;21.00;81.30;;;;;;5493328;26;20365;-74
2024/04/13 09:02:06;;;;;;;7.40;2.33;;;21.10;82.10;;;;;;5493237;26;20014;-74
2024/04/13 09:04:34;;;;;;;5.75;2.13;;;21.20;80.80;;;;;;5491728;26;20030;-73
2024/04/13 09:07:00;;;;;;;3.30;1.92;;;21.20;80.60;;;;;;5493114;26;20026;-73
2024/04/13 09:09:27;;;;;;;2.80;1.95;;;21.30;78.30;;;;;;5492534;26;20038;-74
2024/04/13 09:11:53;;;;;;;3.15;1.75;;;21.30;80.50;;;;;;5491942;26;20468;-73
2024/04/13 09:14:19;;;;;;;2.70;1.77;;;21.40;80.60;;;;;;5493265;26;20025;-73
2024/04/13 09:16:46;;;;;;;5.32;2.13;;;21.50;80.40;;;;;;5492698;26;20022;-74
2024/04/13 09:19:12;;;;;;;4.30;1.88;;;21.60;78.70;;;;;;5493137;26;20026;-73
2024/04/13 09:21:41;;;;;;;5.65;1.80;;;21.60;79.10;;;;;;5492140;26;20022;-73
2024/04/13 09:24:07;;;;;;;2.58;1.45;;;21.70;76.40;;;;;;5491183;26;20027;-73
2024/04/13 09:26:44;;;;;;;2.53;1.35;;;21.80;77.70;;;;;;5492728;26;20456;-73
2024/04/13 09:29:14;;;;;;;2.53;1.50;;;21.90;77.70;;;;;;5492811;26;20474;-73
2024/04/13 09:31:40;;;;;;;3.90;1.42;;;21.90;78.60;;;;;;5459643;26;20026;-73
2024/04/13 09:34:07;;;;;;;5.40;1.77;;;22.00;77.20;;;;;;5492904;26;20023;-73
2024/04/13 09:36:33;;;;;;;1.98;1.27;;;22.00;76.50;;;;;;5491205;26;20021;-73
2024/04/13 09:38:59;;;;;;;4.15;1.58;;;22.10;76.80;;;;;;5492867;26;20021;-74
2024/04/13 09:41:26;;;;;;;3.00;1.52;;;22.10;76.40;;;;;;5492615;26;20018;-73
2024/04/13 09:43:52;;;;;;;3.33;1.33;;;22.20;74.30;;;;;;5492607;26;20030;-74
2024/04/13 09:46:19;;;;;;;2.38;1.40;;;22.30;76.30;;;;;;5492775;26;20469;-74
2024/04/13 09:48:45;;;;;;;2.97;1.38;;;22.30;75.90;;;;;;5492591;26;20034;-74
2024/04/13 09:51:12;;;;;;;4.47;1.38;;;22.40;76.00;;;;;;5491300;26;20026;-73
2024/04/13 09:53:38;;;;;;;2.67;1.38;;;22.50;75.60;;;;;;5492444;26;20026;-73
2024/04/13 09:56:05;;;;;;;4.15;1.25;;;22.60;74.60;;;;;;5460272;26;20018;-73
2024/04/13 09:58:32;;;;;;;2.75;1.20;;;22.60;72.80;;;;;;5492313;26;20475;-73
2024/04/13 10:01:02;;;;;;;2.13;1.52;;;22.70;74.20;;;;;;5492494;26;20360;-73
2024/04/13 10:03:28;;;;;;;4.82;1.80;;;22.60;74.20;;;;;;5492519;26;20022;-73
2024/04/13 10:05:55;;;;;;;13.10;2.92;;;22.70;73.00;;;;;;5459326;26;20026;-73
2024/04/13 10:08:23;;;;;;;6.82;1.88;;;22.70;68.90;;;;;;5492224;26;20018;-73
2024/04/13 10:10:51;;;;;;;3.60;1.23;;;22.70;71.70;;;;;;5459080;26;20022;-72
2024/04/13 10:13:36;;;;;;;10.52;1.58;;;22.80;71.90;;;;;;5492226;26;20017;-72
2024/04/13 10:16:04;;;;;;;2.97;1.13;;;22.70;71.30;;;;;;5492011;26;20464;-72
2024/04/13 10:18:30;;;;;;;3.03;1.10;;;22.90;72.80;;;;;;5492149;26;20022;-72
2024/04/13 10:21:03;;;;;;;4.63;1.25;;;23.00;72.60;;;;;;5492047;26;20018;-73
2024/04/13 10:23:42;;;;;;;;;;;23.10;72.60;;;;;;5492722;26;20042;-73
2024/04/13 10:26:08;;;;;;;4.43;1.33;;;23.10;68.90;;;;;;5492208;26;19948;-72
2024/04/13 10:28:34;;;;;;;2.47;1.10;;;23.20;72.30;;;;;;5492277;26;20457;-72
2024/04/13 10:31:02;;;;;;;3.33;1.33;;;23.20;71.50;;;;;;5492130;26;20463;-73
2024/04/13 10:33:30;;;;;;;3.47;1.10;;;23.40;72.40;;;;;;5491867;26;20027;-73
2024/04/13 10:35:57;;;;;;;2.15;1.17;;;23.40;71.20;;;;;;5491943;26;20015;-72
2024/04/13 10:38:25;;;;;;;3.60;1.00;;;23.50;69.20;;;;;;5491700;26;20027;-72
2024/04/13 10:40:52;;;;;;;1.98;1.10;;;23.50;70.30;;;;;;5491906;26;20031;-72
2024/04/13 10:43:19;;;;;;;2.58;0.95;;;23.60;71.90;;;;;;5491965;26;20026;-73
2024/04/13 10:45:56;;;;;;;4.57;0.90;;;23.60;69.80;;;;;;5490939;26;20022;-71
2024/04/13 10:48:24;;;;;;;6.53;1.17;;;23.80;68.00;;;;;;5489499;26;20018;-72
2024/04/13 10:50:54;;;;;;;4.40;1.20;;;23.80;67.00;;;;;;5491702;26;20014;-71
2024/04/13 10:53:28;;;;;;;2.33;0.90;;;23.90;70.60;;;;;;5491832;26;20030;-72
2024/04/13 10:55:56;;;;;;;1.83;1.10;;;24.00;68.80;;;;;;5490436;26;20460;-72
2024/04/13 10:58:30;;;;;;;1.63;1.02;;;23.90;70.20;;;;;;5458710;26;20018;-72
2024/04/13 11:00:57;;;;;;;3.03;1.08;;;24.00;65.90;;;;;;5491543;26;20054;-73
2024/04/13 11:03:24;;;;;;;2.95;0.98;;;23.90;68.10;;;;;;5490294;26;20018;-73
2024/04/13 11:05:50;;;;;;;2.25;1.10;;;24.00;67.40;;;;;;5491499;26;20022;-73
2024/04/13 11:08:18;;;;;;;2.90;0.95;;;24.00;67.70;;;;;;5491568;26;20465;-72
2024/04/13 11:10:50;;;;;;;2.45;1.00;;;24.00;66.80;;;;;;5458930;26;20030;-73
2024/04/13 11:13:17;;;;;;;3.10;1.17;;;24.10;65.70;;;;;;5491484;26;20014;-72
2024/04/13 11:15:43;;;;;;;2.83;1.27;;;24.20;68.20;;;;;;5491102;26;20613;-73
2024/04/13 11:18:09;;;;;;;6.75;1.10;;;24.10;64.60;;;;;;5491570;26;20027;-73
2024/04/13 11:20:38;;;;;;;2.30;0.93;;;24.10;67.40;;;;;;5491376;26;20022;-73
2024/04/13 11:23:05;;;;;;;3.17;1.02;;;24.10;66.30;;;;;;5489962;26;20365;-73
2024/04/13 11:25:31;;;;;;;2.20;1.10;;;24.10;67.20;;;;;;5491278;26;20034;-73
2024/04/13 11:27:58;;;;;;;3.78;0.90;;;24.10;65.50;;;;;;5491082;26;20030;-73
2024/04/13 11:30:25;;;;;;;5.70;0.85;;;24.00;65.20;;;;;;5491262;26;20021;-73
2024/04/13 11:32:51;;;;;;;2.53;0.90;;;24.20;68.20;;;;;;5491159;26;20018;-73
2024/04/13 11:35:17;;;;;;;2.75;1.08;;;24.20;65.10;;;;;;5491319;26;20019;-73
2024/04/13 11:37:59;;;;;;;2.10;1.10;;;24.30;67.50;;;;;;5489639;26;20061;-72
2024/04/13 11:40:32;;;;;;;5.22;1.10;;;24.40;66.10;;;;;;5490937;26;20014;-72
2024/04/13 11:43:03;;;;;;;2.70;1.17;;;24.50;67.20;;;;;;5491042;26;20023;-73
2024/04/13 11:45:29;;;;;;;5.28;1.23;;;24.50;65.10;;;;;;5491002;26;20018;-73
2024/04/13 11:47:56;;;;;;;4.95;1.10;;;24.70;67.30;;;;;;5489511;26;20481;-73
2024/04/13 11:50:23;;;;;;;2.28;1.13;;;24.70;66.50;;;;;;5456654;26;20365;-72
2024/04/13 11:52:50;;;;;;;2.65;1.10;;;24.80;67.00;;;;;;5490601;26;20029;-76
2024/04/13 11:55:24;;;;;;;2.80;1.20;;;25.00;66.30;;;;;;5491326;26;20019;-76
2024/04/13 11:57:50;;;;;;;1.45;1.10;;;25.00;65.80;;;;;;5428538;26;20014;-75
2024/04/13 12:00:18;;;;;;;1.63;1.23;;;25.00;64.70;;;;;;5458055;26;20033;-76
2024/04/13 12:02:48;;;;;;;3.22;1.10;;;25.00;65.00;;;;;;5490775;26;20018;-75
2024/04/13 12:05:15;;;;;;;6.07;1.30;;;25.00;66.90;;;;;;5490560;26;20018;-74
2024/04/13 12:07:42;;;;;;;6.15;3.85;;;24.90;64.00;;;;;;5490440;26;20014;-76
2024/04/13 12:10:09;;;;;;;4.63;2.05;;;24.90;66.90;;;;;;5490569;26;20041;-76
2024/04/13 12:12:35;;;;;;;6.72;1.30;;;25.00;66.80;;;;;;5490612;26;20018;-76
2024/04/13 12:15:02;;;;;;;1.42;1.13;;;25.00;66.60;;;;;;5489331;26;20018;-75
2024/04/13 12:17:28;;;;;;;3.47;1.40;;;25.00;65.10;;;;;;5489079;26;20034;-75
2024/04/13 12:19:54;;;;;;;3.35;1.40;;;25.00;66.90;;;;;;5490310;26;20006;-76
2024/04/13 12:22:21;;;;;;;2.92;0.90;;;25.00;67.90;;;;;;5490371;26;20026;-76
2024/04/13 12:24:47;;;;;;;3.40;1.30;;;25.10;67.60;;;;;;5490489;26;20014;-76
2024/04/13 12:27:13;;;;;;;3.30;1.30;;;25.00;67.50;;;;;;5490451;26;20332;-75
2024/04/13 12:29:40;;;;;;;5.65;1.35;;;25.10;67.10;;;;;;5490088;26;20018;-75
2024/04/13 12:32:06;;;;;;;2.08;1.10;;;25.10;66.40;;;;;;5489191;26;20042;-76
2024/04/13 12:34:32;;;;;;;2.83;1.13;;;25.10;67.00;;;;;;5488721;26;20018;-76
2024/04/13 12:36:58;;;;;;;6.03;1.10;;;25.30;67.20;;;;;;5457746;26;20022;-76
2024/04/13 12:39:24;;;;;;;4.88;1.50;;;25.50;66.30;;;;;;5490073;26;20017;-76
2024/04/13 12:41:51;;;;;;;3.08;1.20;;;25.60;63.90;;;;;;5490234;26;20026;-76
2024/04/13 12:44:17;;;;;;;2.97;1.02;;;25.50;64.60;;;;;;5457162;26;20374;-76